Time;durP1;ratioP1;P1;durP2;ratioP2;P2;SDS_P1;SDS_P2;PMS_P1;PMS_P2;Temp;Humidity;BMP_temperature;BMP_pressure;BME280_temperature;BME280_humidity;BME280_pressure;Samples;Min_cycle;Max_cycle;Signal;HPM_P1;HPM_P2
2022/05/26 00:01:13;;;;;;;11.05;3.22;;;22.00;52.60;;;;;;4877932;29;20513;-72
2022/05/26 00:03:41;;;;;;;7.20;2.17;;;21.90;51.80;;;;;;4893155;29;20397;-72
2022/05/26 00:06:09;;;;;;;10.13;4.25;;;21.90;50.70;;;;;;4893090;29;20032;-73
2022/05/26 00:08:36;;;;;;;10.57;5.20;;;21.80;49.20;;;;;;4894259;29;20032;-77
2022/05/26 00:11:14;;;;;;;19.20;6.55;;;21.70;48.20;;;;;;4894603;29;20025;-75
2022/05/26 00:13:41;;;;;;;11.60;5.47;;;21.70;49.30;;;;;;4894779;29;20025;-76
2022/05/26 00:16:08;;;;;;;11.43;5.32;;;21.80;49.30;;;;;;4892947;29;20033;-77
2022/05/26 00:18:34;;;;;;;11.77;5.28;;;21.80;49.70;;;;;;4895947;29;20342;-78
2022/05/26 00:21:00;;;;;;;13.80;4.97;;;21.90;49.90;;;;;;4879253;29;20048;-77
2022/05/26 00:23:26;;;;;;;11.45;5.35;;;21.90;50.30;;;;;;4896450;29;20028;-76
2022/05/26 00:25:52;;;;;;;11.40;5.05;;;21.90;50.60;;;;;;4896076;29;20409;-77
2022/05/26 00:28:18;;;;;;;11.60;4.85;;;22.00;50.80;;;;;;4894698;29;20478;-77
2022/05/26 00:30:44;;;;;;;11.27;4.75;;;22.00;51.10;;;;;;4894375;29;20456;-77
2022/05/26 00:33:10;;;;;;;9.90;4.93;;;22.00;51.30;;;;;;4896332;29;20425;-77
2022/05/26 00:35:37;;;;;;;11.35;4.78;;;22.00;51.40;;;;;;4894992;29;20489;-77
2022/05/26 00:38:09;;;;;;;11.68;5.10;;;22.00;51.50;;;;;;4879245;29;20037;-77
2022/05/26 00:40:36;;;;;;;10.27;4.82;;;22.00;51.70;;;;;;4895148;29;20417;-77
2022/05/26 00:43:02;;;;;;;10.82;5.05;;;22.00;51.80;;;;;;4896143;29;20044;-77
2022/05/26 00:45:44;;;;;;;11.45;5.30;;;22.00;52.00;;;;;;4896042;29;20057;-75
2022/05/26 00:48:17;;;;;;;12.73;5.75;;;22.10;52.30;;;;;;4894498;29;20039;-76
2022/05/26 00:50:49;;;;;;;13.90;5.80;;;22.10;52.40;;;;;;4894760;29;20537;-77
2022/05/26 00:53:21;;;;;;;14.50;6.00;;;22.10;52.60;;;;;;4896093;29;20116;-77
2022/05/26 00:55:55;;;;;;;15.35;5.72;;;22.10;52.80;;;;;;4895901;29;20035;-77
2022/05/26 00:58:33;;;;;;;15.32;6.15;;;22.20;52.90;;;;;;4895703;29;20029;-77
2022/05/26 01:01:02;;;;;;;16.42;6.30;;;22.20;52.90;;;;;;4895896;29;20037;-76
2022/05/26 01:03:34;;;;;;;14.85;6.20;;;22.20;53.00;;;;;;4894933;29;20060;-77
2022/05/26 01:06:16;;;;;;;18.92;6.60;;;22.10;53.10;;;;;;4899061;29;20409;-76
2022/05/26 01:08:51;;;;;;;14.98;6.32;;;22.20;53.20;;;;;;4899213;29;20040;-77
2022/05/26 01:11:17;;;;;;;17.90;6.32;;;22.20;53.20;;;;;;4899313;29;20028;-77
2022/05/26 01:13:48;;;;;;;17.13;6.72;;;22.20;53.30;;;;;;4899530;29;20025;-77
2022/05/26 01:16:37;;;;;;;15.20;6.68;;;22.20;53.20;;;;;;4899362;29;20052;-77
2022/05/26 01:19:31;;;;;;;14.30;5.88;;;22.20;53.20;;;;;;4897900;29;20036;-77
2022/05/26 01:22:05;;;;;;;13.23;5.40;;;22.20;53.30;;;;;;4897888;29;20080;-77
2022/05/26 01:24:56;;;;;;;16.25;6.47;;;22.20;53.40;;;;;;4882658;29;20044;-77
2022/05/26 01:27:28;;;;;;;20.15;7.70;;;22.20;53.50;;;;;;4897691;29;20185;-77
2022/05/26 01:29:59;;;;;;;21.13;8.23;;;22.20;53.70;;;;;;4882442;29;20176;-75
2022/05/26 01:32:48;;;;;;;28.85;9.90;;;22.20;53.90;;;;;;4897922;29;20028;-77
2022/05/26 01:35:53;;;;;;;26.07;9.50;;;22.20;54.00;;;;;;4899023;29;20072;-77
2022/05/26 01:38:22;;;;;;;24.27;9.00;;;22.20;54.40;;;;;;4887370;29;20192;-77
2022/05/26 01:41:02;;;;;;;25.25;9.00;;;22.20;54.50;;;;;;4898872;29;20048;-77
2022/05/26 01:44:01;;;;;;;28.35;9.30;;;22.20;54.40;;;;;;4897731;29;20071;-77
2022/05/26 01:46:40;;;;;;;24.42;8.63;;;22.20;54.50;;;;;;4898857;29;20397;-77
2022/05/26 01:49:27;;;;;;;17.92;8.10;;;22.20;54.60;;;;;;4898594;29;20541;-77
2022/05/26 01:52:29;;;;;;;22.02;8.73;;;22.20;54.70;;;;;;4898781;29;20021;-76
2022/05/26 01:55:05;;;;;;;21.33;8.27;;;22.20;54.80;;;;;;4897684;29;20036;-76
2022/05/26 01:57:39;;;;;;;21.35;8.25;;;22.20;54.90;;;;;;4898427;29;20028;-76
2022/05/26 02:00:10;;;;;;;23.70;8.55;;;22.20;54.70;;;;;;4898496;29;20040;-77
2022/05/26 02:02:40;;;;;;;23.58;8.05;;;22.20;54.90;;;;;;4897270;29;20034;-76
2022/05/26 02:05:20;;;;;;;21.00;8.35;;;22.20;54.60;;;;;;4882466;29;20040;-77
2022/05/26 02:07:54;;;;;;;19.55;7.65;;;22.20;54.80;;;;;;4896912;29;20032;-77
2022/05/26 02:10:25;;;;;;;21.42;7.50;;;22.20;54.60;;;;;;4898417;29;20032;-77
2022/05/26 02:13:03;;;;;;;22.52;7.65;;;22.20;54.70;;;;;;4897059;29;20036;-77
2022/05/26 02:15:46;;;;;;;18.65;8.32;;;22.10;54.30;;;;;;4881705;29;20032;-77
2022/05/26 02:18:39;;;;;;;19.60;8.10;;;22.10;54.60;;;;;;4897662;29;20041;-77
2022/05/26 02:21:14;;;;;;;20.70;7.32;;;22.10;54.70;;;;;;4898173;29;20028;-77
2022/05/26 02:23:54;;;;;;;20.45;7.80;;;22.10;54.40;;;;;;4898260;29;20545;-77
2022/05/26 02:26:19;;;;;;;21.63;7.32;;;22.10;54.50;;;;;;4898269;29;20087;-76
2022/05/26 02:31:31;;;;;;;19.60;7.65;;;22.10;54.30;;;;;;4897821;29;20040;-76
2022/05/26 02:34:01;;;;;;;20.15;7.45;;;22.10;54.50;;;;;;4897882;29;20103;-76
2022/05/26 02:36:34;;;;;;;19.10;7.57;;;22.10;54.50;;;;;;4898057;29;20071;-77
2022/05/26 02:38:59;;;;;;;19.33;7.70;;;22.10;54.40;;;;;;4897806;29;20426;-77
2022/05/26 02:41:26;;;;;;;18.63;7.60;;;22.10;54.40;;;;;;4897769;29;20027;-77
2022/05/26 02:43:52;;;;;;;18.52;7.35;;;22.10;54.90;;;;;;4897792;29;20039;-76
2022/05/26 02:46:37;;;;;;;17.50;7.13;;;22.10;54.50;;;;;;4898138;29;20024;-76
2022/05/26 02:49:20;;;;;;;19.08;6.43;;;22.00;54.40;;;;;;4896438;29;20029;-76
2022/05/26 02:52:17;;;;;;;15.73;6.30;;;22.10;54.40;;;;;;4896480;29;20029;-77
2022/05/26 02:54:47;;;;;;;16.20;6.13;;;22.10;54.30;;;;;;4897584;29;20025;-77
2022/05/26 02:57:33;;;;;;;20.67;7.43;;;22.10;54.30;;;;;;4897526;29;20036;-77
2022/05/26 03:00:08;;;;;;;19.73;7.43;;;22.10;54.30;;;;;;4897508;29;20040;-76
2022/05/26 03:02:45;;;;;;;19.13;7.32;;;22.10;54.30;;;;;;4880965;29;20033;-77
2022/05/26 03:05:17;;;;;;;17.65;6.85;;;22.10;54.30;;;;;;4897618;29;20089;-77
2022/05/26 03:07:48;;;;;;;17.73;6.20;;;22.10;54.30;;;;;;4897082;29;20039;-78
2022/05/26 03:10:15;;;;;;;17.77;7.47;;;22.10;54.30;;;;;;4897335;29;20036;-77
2022/05/26 03:12:41;;;;;;;20.60;7.40;;;22.10;54.20;;;;;;4897537;29;20048;-77
2022/05/26 03:15:08;;;;;;;17.08;6.75;;;22.10;54.30;;;;;;4897302;29;20021;-77
2022/05/26 03:17:34;;;;;;;17.00;6.20;;;22.10;54.30;;;;;;4896857;29;20065;-77
2022/05/26 03:20:00;;;;;;;16.70;6.93;;;22.00;54.30;;;;;;4895911;29;20041;-77
2022/05/26 03:22:26;;;;;;;16.05;6.97;;;22.00;54.30;;;;;;4897250;29;20035;-77
2022/05/26 03:24:53;;;;;;;14.68;6.10;;;22.00;54.30;;;;;;4895845;29;20088;-77
2022/05/26 03:27:19;;;;;;;17.25;6.47;;;22.10;54.30;;;;;;4880173;29;20040;-77
2022/05/26 03:29:45;;;;;;;15.30;6.30;;;22.00;54.40;;;;;;4897560;29;20060;-77
2022/05/26 03:32:11;;;;;;;16.08;6.97;;;22.00;54.40;;;;;;4898182;29;20064;-77
2022/05/26 03:42:57;;;;;;;15.10;6.15;;;22.00;54.20;;;;;;4896928;29;20043;-77
2022/05/26 03:45:24;;;;;;;15.32;6.45;;;22.00;54.30;;;;;;4895559;29;20402;-77
2022/05/26 03:47:50;;;;;;;15.68;5.93;;;22.00;54.20;;;;;;4895163;29;20036;-78
2022/05/26 03:50:17;;;;;;;17.02;7.10;;;22.00;54.30;;;;;;4896474;29;20036;-78
2022/05/26 03:52:43;;;;;;;15.70;6.13;;;22.00;54.30;;;;;;4879925;29;20028;-77
2022/05/26 03:55:09;;;;;;;14.43;6.07;;;22.00;54.40;;;;;;4895648;29;20039;-77
2022/05/26 03:57:37;;;;;;;13.38;5.63;;;22.00;54.30;;;;;;4879556;29;20402;-76
2022/05/26 04:00:04;;;;;;;15.25;6.10;;;22.00;54.20;;;;;;4895249;29;20028;-77
2022/05/26 04:02:38;;;;;;;14.60;6.25;;;22.00;54.20;;;;;;4895521;29;20406;-77
2022/05/26 04:05:04;;;;;;;15.25;6.88;;;22.00;54.20;;;;;;4895504;29;20061;-77
2022/05/26 04:07:30;;;;;;;14.00;5.90;;;22.00;54.30;;;;;;4896361;29;20092;-77
2022/05/26 04:09:55;;;;;;;14.52;6.03;;;22.00;54.20;;;;;;4895297;29;20115;-77
2022/05/26 04:12:22;;;;;;;15.13;6.20;;;22.10;54.80;;;;;;4895689;29;20032;-77
2022/05/26 04:14:47;;;;;;;14.35;5.72;;;22.00;54.20;;;;;;4896427;29;20490;-77
2022/05/26 04:17:13;;;;;;;14.52;6.07;;;22.00;54.30;;;;;;4895412;29;20131;-77
2022/05/26 04:19:41;;;;;;;14.00;5.68;;;22.00;54.20;;;;;;4895232;29;20056;-77
2022/05/26 04:22:23;;;;;;;14.85;6.10;;;22.00;54.20;;;;;;4895432;29;20577;-77
2022/05/26 04:24:57;;;;;;;13.13;5.72;;;22.00;54.20;;;;;;4896454;29;20490;-76
2022/05/26 04:27:26;;;;;;;13.10;5.55;;;22.00;54.30;;;;;;4896129;29;20047;-76
2022/05/26 04:29:52;;;;;;;14.05;5.53;;;22.00;54.40;;;;;;4879287;29;20270;-76
2022/05/26 04:32:19;;;;;;;14.32;5.78;;;22.00;54.30;;;;;;4879598;29;20032;-76
2022/05/26 04:34:48;;;;;;;14.18;5.93;;;22.00;54.30;;;;;;4896029;29;20028;-76
2022/05/26 04:37:15;;;;;;;13.65;5.80;;;22.00;54.50;;;;;;4894885;29;20033;-77
2022/05/26 04:39:41;;;;;;;13.68;5.60;;;22.00;54.30;;;;;;4896937;29;20569;-76
2022/05/26 04:42:07;;;;;;;14.20;6.00;;;22.00;54.30;;;;;;4899043;29;20029;-76
2022/05/26 04:44:38;;;;;;;12.15;5.00;;;22.00;54.30;;;;;;4883355;29;20039;-76
2022/05/26 04:47:05;;;;;;;14.23;5.45;;;22.00;54.30;;;;;;4899905;29;20565;-77
2022/05/26 04:49:31;;;;;;;14.68;6.13;;;22.00;54.30;;;;;;4898272;29;20067;-77
2022/05/26 04:51:57;;;;;;;14.05;5.68;;;22.00;54.20;;;;;;4898666;29;20459;-77
2022/05/26 04:54:24;;;;;;;13.52;5.65;;;22.00;54.30;;;;;;4883032;29;20031;-77
2022/05/26 04:56:49;;;;;;;12.65;5.85;;;22.00;54.20;;;;;;4899864;29;20096;-77
2022/05/26 04:59:15;;;;;;;11.88;5.10;;;22.00;54.30;;;;;;4899407;29;20065;-77
2022/05/26 05:01:42;;;;;;;12.73;5.60;;;22.10;54.30;;;;;;4898514;29;20508;-77
2022/05/26 05:04:08;;;;;;;13.27;5.70;;;22.00;54.10;;;;;;4898489;29;20478;-77
2022/05/26 05:06:34;;;;;;;13.52;6.25;;;22.00;54.10;;;;;;4899526;29;20037;-77
2022/05/26 05:09:00;;;;;;;12.65;5.35;;;22.00;54.20;;;;;;4898241;29;20033;-77
2022/05/26 05:11:26;;;;;;;10.95;5.05;;;22.00;54.10;;;;;;4898342;29;20092;-77
2022/05/26 05:13:53;;;;;;;14.00;5.43;;;22.00;54.10;;;;;;4882698;29;20055;-77
2022/05/26 05:16:27;;;;;;;15.77;5.85;;;22.00;54.10;;;;;;4899344;29;20024;-77
2022/05/26 05:18:53;;;;;;;13.00;5.72;;;22.00;54.10;;;;;;4899120;29;20025;-77
2022/05/26 05:21:41;;;;;;;12.85;5.35;;;22.00;54.20;;;;;;4909687;23;20095;-80
2022/05/26 05:24:38;;;;;;;13.32;5.30;;;22.00;54.20;;;;;;4880233;29;20096;-82
2022/05/26 05:27:15;;;;;;;12.65;5.35;;;22.00;54.20;;;;;;4897411;29;20047;-82
2022/05/26 05:29:42;;;;;;;11.05;5.10;;;22.00;54.20;;;;;;4899310;29;20033;-82
2022/05/26 05:32:17;;;;;;;14.13;5.68;;;22.00;54.30;;;;;;4864052;29;20124;-82
2022/05/26 05:34:54;;;;;;;14.77;5.38;;;22.00;54.10;;;;;;4880384;29;20064;-82
2022/05/26 05:37:20;;;;;;;13.20;5.60;;;22.00;54.10;;;;;;4880348;29;20037;-82
2022/05/26 05:39:46;;;;;;;13.45;5.28;;;22.00;54.10;;;;;;4880425;29;20037;-82
2022/05/26 05:42:12;;;;;;;11.50;5.07;;;22.00;54.20;;;;;;4863705;29;20057;-82
2022/05/26 05:44:38;;;;;;;11.38;5.32;;;22.00;54.20;;;;;;4878952;29;20068;-82
2022/05/26 05:47:05;;;;;;;12.95;5.57;;;22.00;54.10;;;;;;4880076;29;20402;-82
2022/05/26 05:49:33;;;;;;;13.70;5.95;;;22.00;54.20;;;;;;4879843;29;20521;-82
2022/05/26 05:52:09;;;;;;;10.05;5.10;;;22.00;54.30;;;;;;4862480;29;20390;-82
2022/05/26 05:54:34;;;;;;;10.88;5.00;;;22.00;54.10;;;;;;4880276;29;20039;-82
2022/05/26 05:57:00;;;;;;;12.73;5.07;;;22.00;54.10;;;;;;4879711;29;20033;-82
2022/05/26 05:59:26;;;;;;;11.57;4.85;;;22.00;54.20;;;;;;4878680;29;20073;-82
2022/05/26 06:01:52;;;;;;;10.90;4.80;;;22.00;54.10;;;;;;4879773;29;20032;-82
2022/05/26 06:04:17;;;;;;;12.82;5.82;;;22.00;54.10;;;;;;4880053;29;20025;-82
2022/05/26 06:06:44;;;;;;;13.20;5.47;;;22.00;54.10;;;;;;4879847;29;20044;-82
2022/05/26 06:09:16;;;;;;;12.82;5.00;;;22.00;54.10;;;;;;4878453;29;20119;-83
2022/05/26 06:11:45;;;;;;;10.80;5.20;;;22.00;54.10;;;;;;4879816;29;20025;-82
2022/05/26 06:14:11;;;;;;;10.63;5.13;;;22.00;54.20;;;;;;4879965;29;20021;-82
2022/05/26 06:16:37;;;;;;;14.25;5.70;;;22.00;54.10;;;;;;4879575;29;20031;-81
2022/05/26 06:19:03;;;;;;;12.05;5.20;;;22.00;54.10;;;;;;4878237;29;20033;-81
2022/05/26 06:21:29;;;;;;;10.50;4.65;;;22.00;54.10;;;;;;4878235;29;20052;-80
2022/05/26 06:23:56;;;;;;;10.45;4.82;;;22.00;54.70;;;;;;4878313;29;20097;-79
2022/05/26 06:26:29;;;;;;;10.50;4.80;;;22.00;54.10;;;;;;4878409;29;20128;-80
2022/05/26 06:37:13;;;;;;;10.13;4.38;;;22.00;54.10;;;;;;4862838;29;20490;-80
2022/05/26 06:37:14;;;;;;;11.32;4.72;;;22.00;54.20;;;;;;4879078;29;20387;-78
2022/05/26 06:39:40;;;;;;;8.70;4.60;;;22.00;54.20;;;;;;4879138;29;20036;-79
2022/05/26 06:42:07;;;;;;;11.05;4.82;;;22.00;54.80;;;;;;4879300;29;20033;-79
2022/05/26 06:44:42;;;;;;;10.35;4.88;;;22.00;54.30;;;;;;4879162;29;20084;-79
2022/05/26 06:47:16;;;;;;;11.02;5.18;;;22.00;54.10;;;;;;4877655;29;20406;-79
2022/05/26 06:49:43;;;;;;;9.57;4.60;;;22.00;54.10;;;;;;4879463;29;20080;-79
2022/05/26 06:52:10;;;;;;;9.95;4.70;;;22.00;54.20;;;;;;4878866;29;20040;-79
2022/05/26 06:54:39;;;;;;;10.98;4.93;;;22.00;54.10;;;;;;4878944;29;20120;-79
2022/05/26 06:57:06;;;;;;;9.30;4.63;;;22.00;54.20;;;;;;4877698;29;20173;-79
2022/05/26 06:59:33;;;;;;;12.57;5.32;;;22.00;54.20;;;;;;4878518;29;20288;-80
2022/05/26 07:01:58;;;;;;;10.07;4.75;;;22.00;54.20;;;;;;4878576;29;20025;-80
2022/05/26 07:04:24;;;;;;;11.43;4.82;;;22.00;54.10;;;;;;4878854;29;20392;-80
2022/05/26 07:06:52;;;;;;;9.40;5.00;;;22.00;54.10;;;;;;4893179;29;20029;-77
2022/05/26 07:09:19;;;;;;;8.80;4.18;;;22.00;54.30;;;;;;4878283;29;20037;-77
2022/05/26 07:11:45;;;;;;;11.93;4.13;;;22.00;54.50;;;;;;4878503;29;20033;-77
2022/05/26 07:14:12;;;;;;;9.38;3.10;;;22.00;54.50;;;;;;4878371;29;20033;-78
2022/05/26 07:16:39;;;;;;;9.95;3.45;;;21.90;54.80;;;;;;4873514;29;20491;-78
2022/05/26 07:19:05;;;;;;;9.48;3.55;;;21.90;54.00;;;;;;4890651;29;20116;-77
2022/05/26 07:21:31;;;;;;;9.05;2.67;;;21.90;53.70;;;;;;4876085;29;20120;-78
2022/05/26 07:23:56;;;;;;;12.07;3.25;;;21.80;53.50;;;;;;4875500;29;20280;-77
2022/05/26 07:26:24;;;;;;;9.00;3.47;;;21.80;53.90;;;;;;4876526;29;20029;-77
2022/05/26 07:28:53;;;;;;;8.23;4.20;;;21.70;53.70;;;;;;4876135;29;20051;-77
2022/05/26 07:31:20;;;;;;;14.60;9.00;;;21.70;53.80;;;;;;4887829;29;20040;-78
2022/05/26 07:33:47;;;;;;;14.02;8.00;;;21.70;53.50;;;;;;4876137;29;20033;-77
2022/05/26 07:41:43;;;;;;;9.00;4.57;;;21.60;53.50;;;;;;4875906;29;20021;-77
2022/05/26 07:44:09;;;;;;;11.25;4.80;;;21.60;53.40;;;;;;4876204;29;20029;-77
2022/05/26 07:46:35;;;;;;;9.93;4.78;;;21.70;53.50;;;;;;4890536;29;20044;-77
2022/05/26 07:49:01;;;;;;;10.30;5.28;;;21.70;53.50;;;;;;4876058;29;20033;-76
2022/05/26 07:51:26;;;;;;;9.90;4.88;;;21.80;53.50;;;;;;4875942;29;20049;-77
2022/05/26 07:53:52;;;;;;;10.27;5.25;;;21.80;53.40;;;;;;4876090;29;20056;-79
2022/05/26 07:56:18;;;;;;;15.52;4.65;;;21.80;53.30;;;;;;4876080;29;20029;-79
2022/05/26 07:58:44;;;;;;;16.95;4.95;;;21.80;54.10;;;;;;4875501;29;20056;-81
2022/05/26 08:01:11;;;;;;;12.48;4.70;;;21.90;54.40;;;;;;4887308;29;20041;-81
2022/05/26 08:03:38;;;;;;;7.88;4.13;;;21.90;53.90;;;;;;4875391;29;20056;-81
2022/05/26 08:06:04;;;;;;;10.98;4.40;;;21.90;53.60;;;;;;4875733;29;20064;-75
2022/05/26 08:08:34;;;;;;;14.25;7.97;;;22.00;54.50;;;;;;4875459;29;20085;-75
2022/05/26 08:11:00;;;;;;;19.17;10.82;;;22.00;54.10;;;;;;4875978;29;20033;-75
2022/05/26 08:13:26;;;;;;;14.77;9.23;;;21.80;54.60;;;;;;4875226;29;20044;-75
2022/05/26 08:15:52;;;;;;;11.13;5.82;;;21.80;54.90;;;;;;4874472;29;20049;-76
2022/05/26 08:18:18;;;;;;;14.70;5.72;;;21.70;55.20;;;;;;4875519;29;20048;-76
2022/05/26 08:20:44;;;;;;;9.60;4.60;;;21.70;55.50;;;;;;4876781;29;20033;-75
2022/05/26 08:23:12;;;;;;;7.13;3.20;;;21.70;55.60;;;;;;4858924;29;20041;-77
2022/05/26 08:25:39;;;;;;;7.95;3.15;;;21.70;55.60;;;;;;4875550;29;20037;-76
2022/05/26 08:28:05;;;;;;;3.83;2.17;;;21.50;56.20;;;;;;4873968;29;20104;-75
2022/05/26 08:30:31;;;;;;;5.68;2.50;;;21.20;56.70;;;;;;4875607;29;20054;-74
2022/05/26 08:32:57;;;;;;;16.60;5.55;;;21.10;57.50;;;;;;4876189;29;20025;-76
2022/05/26 08:35:24;;;;;;;7.25;3.67;;;21.20;57.00;;;;;;4876677;29;20029;-76
2022/05/26 08:37:50;;;;;;;6.85;2.97;;;20.60;57.70;;;;;;4874898;29;20036;-75
2022/05/26 08:40:36;;;;;;;8.25;2.58;;;20.10;58.00;;;;;;4876989;29;20406;-74
2022/05/26 08:43:09;;;;;;;5.57;2.28;;;20.60;57.50;;;;;;4874374;29;20041;-77
2022/05/26 08:45:43;;;;;;;6.07;1.95;;;20.90;56.60;;;;;;4877007;29;20048;-76
2022/05/26 08:48:15;;;;;;;6.00;2.28;;;21.20;56.10;;;;;;4860263;29;20033;-77
2022/05/26 08:50:41;;;;;;;3.83;1.90;;;21.30;55.90;;;;;;4877190;29;20032;-77
2022/05/26 08:53:11;;;;;;;6.53;1.92;;;21.40;55.60;;;;;;4875890;29;20025;-76
2022/05/26 08:55:42;;;;;;;;;;;21.50;55.50;;;;;;4845462;29;20582;-76
2022/05/26 08:58:20;;;;;;;3.42;1.50;;;21.60;55.20;;;;;;4875643;29;20383;-77
2022/05/26 09:00:49;;;;;;;3.95;1.50;;;21.60;55.10;;;;;;4876326;29;20069;-76
2022/05/26 09:03:28;;;;;;;5.43;1.67;;;21.60;55.00;;;;;;4877129;29;20398;-75
2022/05/26 09:06:07;;;;;;;3.67;1.58;;;21.60;55.00;;;;;;4860562;29;20558;-76
2022/05/26 09:14:41;;;;;;;6.43;1.58;;;21.80;55.40;;;;;;4875734;29;20062;-76
2022/05/26 09:17:10;;;;;;;13.48;1.60;;;21.80;57.10;;;;;;4877132;29;20037;-77
2022/05/26 09:19:42;;;;;;;12.23;1.60;;;21.90;56.00;;;;;;4876984;29;20037;-76
2022/05/26 09:22:27;;;;;;;6.88;2.00;;;21.90;57.10;;;;;;4877039;29;20041;-77
2022/05/26 09:24:53;;;;;;;7.18;1.85;;;21.90;56.00;;;;;;4876991;29;20036;-76
2022/05/26 09:27:36;;;;;;;7.32;1.70;;;21.90;55.30;;;;;;4879045;29;20514;-77
2022/05/26 09:30:26;;;;;;;5.10;1.75;;;21.90;55.20;;;;;;4879258;29;20097;-76
2022/05/26 09:32:53;;;;;;;11.15;1.90;;;21.90;54.90;;;;;;4880446;29;20564;-77
2022/05/26 09:35:18;;;;;;;5.30;1.77;;;21.90;56.40;;;;;;4880297;29;20029;-75
2022/05/26 09:37:53;;;;;;;6.95;1.90;;;21.80;55.60;;;;;;4879280;29;20037;-76
2022/05/26 09:40:20;;;;;;;9.15;2.25;;;21.90;55.30;;;;;;4880098;29;20040;-77
2022/05/26 09:42:51;;;;;;;9.07;2.17;;;21.90;57.10;;;;;;4880174;29;20041;-75
2022/05/26 09:45:19;;;;;;;11.68;1.55;;;21.90;56.00;;;;;;4863517;29;20040;-72
2022/05/26 09:47:54;;;;;;;9.60;1.92;;;22.00;56.20;;;;;;4879916;29;20035;-80
2022/05/26 09:50:52;;;;;;;11.70;2.00;;;22.00;57.10;;;;;;4879783;29;20029;-83
2022/05/26 09:53:35;;;;;;;6.82;1.83;;;22.00;56.20;;;;;;4879812;29;20037;-82
2022/05/26 09:56:01;;;;;;;11.50;2.10;;;22.00;54.80;;;;;;4878936;29;20029;-82
2022/05/26 09:58:34;;;;;;;6.32;1.73;;;22.00;54.90;;;;;;4878718;29;20036;-82
2022/05/26 10:01:30;;;;;;;7.50;3.72;;;22.00;55.00;;;;;;4894321;29;20088;-82
2022/05/26 10:04:16;;;;;;;11.07;5.82;;;22.00;56.50;;;;;;4879046;29;20029;-83
2022/05/26 10:07:13;;;;;;;10.80;5.40;;;22.00;56.80;;;;;;4880145;29;20040;-82
2022/05/26 10:09:44;;;;;;;7.75;4.00;;;22.00;56.70;;;;;;4879948;29;20028;-80
2022/05/26 10:12:39;;;;;;;11.65;6.38;;;22.00;56.50;;;;;;4878836;29;20473;-81
2022/05/26 10:15:45;;;;;;;11.45;3.70;;;22.00;56.50;;;;;;4879842;29;20059;-82
2022/05/26 10:18:39;;;;;;;10.45;3.28;;;22.00;57.70;;;;;;4879663;29;20021;-81
2022/05/26 10:21:16;;;;;;;8.85;2.75;;;22.10;58.60;;;;;;4877355;29;20064;-82
2022/05/26 10:24:00;;;;;;;8.60;2.38;;;22.00;58.70;;;;;;4863349;29;20044;-82
2022/05/26 10:26:37;;;;;;;7.03;3.58;;;22.00;59.00;;;;;;4847765;29;20044;-83
2022/05/26 10:29:18;;;;;;;13.10;2.15;;;22.00;59.30;;;;;;4878393;29;20037;-83
2022/05/26 10:32:09;;;;;;;12.55;2.10;;;22.00;58.20;;;;;;4878403;29;20516;-83
2022/05/26 10:35:03;;;;;;;9.02;2.10;;;22.00;58.30;;;;;;4878381;29;20082;-82
2022/05/26 10:37:54;;;;;;;8.80;2.60;;;22.10;62.30;;;;;;4877321;29;20037;-82
2022/05/26 10:40:46;;;;;;;8.50;3.58;;;22.10;61.50;;;;;;4879247;29;20037;-81
2022/05/26 10:43:23;;;;;;;12.90;4.93;;;22.10;61.60;;;;;;4879450;29;20044;-82
2022/05/26 10:45:51;;;;;;;20.95;6.88;;;22.10;67.60;;;;;;4879555;29;20490;-82
2022/05/26 10:48:54;;;;;;;11.43;3.08;;;22.20;73.50;;;;;;4877945;29;20486;-82
2022/05/26 10:51:34;;;;;;;14.20;3.60;;;22.20;69.80;;;;;;4862524;29;20647;-81
2022/05/26 10:54:05;;;;;;;13.38;3.83;;;22.20;66.90;;;;;;4879410;29;20515;-81
2022/05/26 10:56:54;;;;;;;11.38;3.35;;;22.20;64.60;;;;;;4878867;29;20086;-81
2022/05/26 10:59:34;;;;;;;12.40;3.08;;;22.20;64.20;;;;;;4878735;29;20226;-72
2022/05/26 11:02:12;;;;;;;16.88;6.07;;;22.10;62.90;;;;;;4878708;29;20112;-72
2022/05/26 11:04:56;;;;;;;21.58;10.73;;;21.90;58.30;;;;;;4878814;29;20081;-72
2022/05/26 11:07:38;;;;;;;14.60;6.30;;;21.70;57.50;;;;;;4878442;29;20403;-72
2022/05/26 11:10:29;;;;;;;12.75;5.90;;;21.60;58.20;;;;;;4878799;29;20041;-71
2022/05/26 11:13:16;;;;;;;7.97;3.17;;;21.70;56.00;;;;;;4878782;29;20171;-75
2022/05/26 11:19:10;;;;;;;13.93;3.60;;;21.50;54.70;;;;;;4878199;29;20041;-75
2022/05/26 11:21:36;;;;;;;13.00;3.92;;;21.70;55.50;;;;;;4878058;29;20115;-75
2022/05/26 11:24:07;;;;;;;9.68;3.25;;;21.70;55.00;;;;;;4878475;29;20436;-75
2022/05/26 11:26:50;;;;;;;10.07;3.53;;;21.80;54.90;;;;;;4878469;29;20037;-76
2022/05/26 11:29:31;;;;;;;10.32;3.30;;;21.80;56.50;;;;;;4877191;29;20037;-75
2022/05/26 11:38:13;;;;;;;9.55;3.67;;;21.90;57.30;;;;;;4877989;29;20135;-76
2022/05/26 11:40:55;;;;;;;6.22;3.08;;;21.90;56.50;;;;;;4878144;29;20108;-75
2022/05/26 11:43:40;;;;;;;10.57;3.88;;;21.90;56.20;;;;;;4878085;29;20061;-75
2022/05/26 11:46:08;;;;;;;7.93;3.83;;;21.90;56.00;;;;;;4877885;29;20506;-75
2022/05/26 11:48:34;;;;;;;7.43;3.17;;;21.90;56.80;;;;;;4877073;29;20029;-75
2022/05/26 11:51:23;;;;;;;8.57;3.35;;;21.90;57.90;;;;;;4877523;29;20520;-76
2022/05/26 11:53:49;;;;;;;6.57;3.10;;;21.80;56.40;;;;;;4861356;29;20065;-75
2022/05/26 11:56:23;;;;;;;10.13;3.20;;;21.80;56.40;;;;;;4877931;29;20059;-76
2022/05/26 11:59:20;;;;;;;6.30;3.13;;;21.90;57.50;;;;;;4876412;29;20061;-75
2022/05/26 12:01:58;;;;;;;5.95;3.17;;;21.90;57.20;;;;;;4877851;29;20119;-75
2022/05/26 12:04:32;;;;;;;12.73;3.10;;;21.90;55.30;;;;;;4878193;29;20033;-76
2022/05/26 12:07:00;;;;;;;10.00;3.25;;;21.90;56.10;;;;;;4877716;29;20142;-75
2022/05/26 12:09:50;;;;;;;8.77;2.97;;;21.90;56.10;;;;;;4876562;29;20036;-75
2022/05/26 12:12:16;;;;;;;;;;;21.90;57.10;;;;;;4878164;29;20025;-75
2022/05/26 12:15:13;;;;;;;9.05;2.70;;;22.00;55.70;;;;;;4876990;29;19911;-75
2022/05/26 12:17:49;;;;;;;7.65;2.95;;;22.00;54.90;;;;;;4873938;29;20486;-75
2022/05/26 12:20:15;;;;;;;7.75;2.60;;;22.00;53.70;;;;;;4875774;29;20181;-75
2022/05/26 12:22:49;;;;;;;8.50;2.70;;;22.00;52.50;;;;;;4874204;29;20557;-75
2022/05/26 12:25:18;;;;;;;8.80;3.05;;;22.00;53.60;;;;;;4875517;29;20076;-75
2022/05/26 12:27:51;;;;;;;7.80;2.45;;;22.00;53.50;;;;;;4875693;29;20613;-75
2022/05/26 12:30:39;;;;;;;6.03;2.60;;;22.00;53.40;;;;;;4875640;29;20037;-78
2022/05/26 12:33:27;;;;;;;9.60;4.15;;;21.90;55.00;;;;;;4877299;29;20044;-80
2022/05/26 12:36:16;;;;;;;11.55;5.03;;;22.00;53.30;;;;;;4877454;29;20108;-75
2022/05/26 12:39:33;;;;;;;13.95;4.60;;;22.00;53.00;;;;;;4877412;29;20116;-78
2022/05/26 12:42:19;;;;;;;12.13;4.10;;;22.00;53.00;;;;;;4845419;29;20513;-79
2022/05/26 12:44:48;;;;;;;9.80;4.32;;;22.10;54.50;;;;;;4876462;29;20124;-79
2022/05/26 12:47:16;;;;;;;9.15;3.80;;;22.10;54.80;;;;;;4877167;29;20184;-78
2022/05/26 12:50:03;;;;;;;10.05;4.47;;;22.10;54.60;;;;;;4877309;29;20077;-76
2022/05/26 12:52:42;;;;;;;10.85;4.07;;;22.10;54.00;;;;;;4877214;29;20506;-77
2022/05/26 12:55:22;;;;;;;7.25;3.05;;;22.10;53.90;;;;;;4876623;29;20479;-76
2022/05/26 12:58:02;;;;;;;8.35;3.65;;;22.10;53.70;;;;;;4877339;29;20025;-76
2022/05/26 13:00:37;;;;;;;9.75;3.63;;;22.10;53.90;;;;;;4878016;29;20394;-77
2022/05/26 13:03:23;;;;;;;10.35;3.80;;;22.10;54.10;;;;;;4881109;29;20094;-76
2022/05/26 13:06:21;;;;;;;12.65;4.25;;;22.10;54.20;;;;;;4873834;29;20041;-77
2022/05/26 13:08:50;;;;;;;10.68;4.05;;;22.00;54.30;;;;;;4879357;29;20402;-76
2022/05/26 13:11:19;;;;;;;9.20;4.00;;;22.00;54.60;;;;;;4880817;29;20036;-76
2022/05/26 13:13:51;;;;;;;8.63;3.70;;;22.00;54.60;;;;;;4879901;29;20037;-76
2022/05/26 13:16:27;;;;;;;11.07;4.05;;;22.00;54.70;;;;;;4881045;29;20439;-77
2022/05/26 13:18:55;;;;;;;10.75;3.92;;;22.00;54.90;;;;;;4880548;29;20029;-76
2022/05/26 13:21:23;;;;;;;9.20;4.22;;;22.00;55.00;;;;;;4880300;29;20037;-77
2022/05/26 13:23:50;;;;;;;10.25;3.70;;;22.00;54.90;;;;;;4880810;29;20359;-77
2022/05/26 13:26:18;;;;;;;8.32;3.88;;;22.00;55.10;;;;;;4880562;29;20506;-76
2022/05/26 13:28:49;;;;;;;11.30;4.60;;;22.00;54.70;;;;;;4880285;29;20057;-76
2022/05/26 13:34:04;;;;;;;7.63;3.65;;;22.00;55.10;;;;;;4882745;29;20109;-77
2022/05/26 13:36:49;;;;;;;8.60;3.55;;;22.00;55.20;;;;;;4882354;29;20112;-77
2022/05/26 13:39:25;;;;;;;13.10;4.05;;;22.00;55.40;;;;;;4866147;29;20033;-78
2022/05/26 13:41:53;;;;;;;10.57;3.88;;;22.00;55.50;;;;;;4881514;29;20466;-78
2022/05/26 13:44:43;;;;;;;7.07;4.03;;;22.00;55.40;;;;;;4881585;29;20379;-76
2022/05/26 13:47:12;;;;;;;8.38;3.75;;;22.00;55.00;;;;;;4865403;29;20089;-77
2022/05/26 13:49:41;;;;;;;7.82;3.63;;;22.00;55.00;;;;;;4881931;29;20119;-75
2022/05/26 13:52:08;;;;;;;7.15;3.45;;;22.00;55.40;;;;;;4882735;29;20145;-77